createdAt,value
2018-09-08T00:02:23.654Z,99.90
2018-09-08T00:04:53.761Z,99.90
2018-09-08T00:07:28.889Z,99.90
2018-09-08T00:09:58.997Z,99.90
2018-09-08T00:12:29.035Z,99.90
2018-09-08T00:15:04.140Z,99.90
2018-09-08T00:17:39.261Z,99.50
2018-09-08T00:20:14.660Z,99.60
2018-09-08T00:22:49.727Z,99.60
2018-09-08T00:25:24.671Z,99.90
2018-09-08T00:29:02.803Z,99.90
2018-09-08T00:31:32.828Z,99.90
2018-09-08T00:34:03.124Z,99.90
2018-09-08T00:36:33.135Z,99.90
2018-09-08T00:39:03.188Z,99.90
2018-09-08T00:41:33.191Z,99.90
2018-09-08T00:44:03.277Z,99.90
2018-09-08T00:46:33.363Z,99.90
2018-09-08T00:49:03.459Z,99.90
2018-09-08T00:51:33.493Z,99.90
2018-09-08T00:54:03.595Z,99.90
2018-09-08T00:56:33.606Z,99.90
2018-09-08T00:59:05.269Z,99.90
2018-09-08T01:04:14.255Z,99.90
2018-09-08T01:06:44.508Z,99.50
2018-09-08T01:09:14.564Z,99.00
2018-09-08T01:11:44.502Z,98.40
2018-09-08T01:14:14.694Z,98.60
2018-09-08T01:16:44.728Z,98.30
2018-09-08T01:22:23.353Z,98.80
2018-09-08T01:24:53.618Z,98.10
2018-09-08T01:27:23.584Z,98.10
2018-09-08T01:29:53.599Z,98.40
2018-09-08T01:32:23.665Z,98.10
2018-09-08T01:34:53.979Z,97.80
2018-09-08T01:37:25.325Z,97.80
2018-09-08T01:39:55.458Z,97.80
2018-09-08T01:42:25.558Z,97.70
2018-09-08T01:44:55.973Z,97.60
2018-09-08T01:47:26.530Z,97.80
2018-09-08T01:49:57.037Z,98.40
2018-09-08T01:52:27.633Z,98.30
2018-09-08T01:54:57.659Z,98.70
2018-09-08T01:57:27.690Z,99.00
2018-09-08T01:59:58.012Z,99.00
2018-09-08T02:02:28.090Z,98.40
2018-09-08T02:04:58.213Z,98.30
2018-09-08T02:07:28.471Z,98.20
2018-09-08T02:09:59.365Z,98.10
2018-09-08T02:12:29.238Z,97.90
2018-09-08T02:14:59.251Z,98.20
2018-09-08T02:17:29.308Z,98.30
2018-09-08T02:19:59.268Z,98.20
2018-09-08T02:22:29.506Z,98.30
2018-09-08T02:24:59.899Z,98.30
2018-09-08T02:27:30.016Z,98.60
2018-09-08T02:30:00.308Z,98.40
2018-09-08T02:32:30.312Z,98.70
2018-09-08T02:35:00.357Z,98.70
2018-09-08T02:37:30.453Z,98.40
2018-09-08T02:42:58.018Z,98.70
2018-09-08T02:45:28.699Z,98.50
2018-09-08T02:47:58.793Z,98.40
2018-09-08T02:50:35.704Z,98.80
2018-09-08T02:53:04.142Z,98.80
2018-09-08T02:55:32.734Z,98.70
2018-09-08T02:58:00.824Z,98.60
2018-09-08T03:00:29.207Z,98.70
2018-09-08T03:02:57.188Z,99.10
2018-09-08T03:05:25.132Z,98.90
2018-09-08T03:07:53.064Z,98.90
2018-09-08T03:10:21.737Z,98.60
2018-09-08T03:12:49.692Z,98.50
2018-09-08T03:15:17.639Z,98.90
2018-09-08T03:17:45.677Z,99.60
2018-09-08T03:20:13.659Z,99.30
2018-09-08T03:22:41.620Z,99.50
2018-09-08T03:25:09.642Z,99.50
2018-09-08T03:27:37.655Z,99.60
2018-09-08T03:30:05.660Z,99.60
2018-09-08T03:32:33.727Z,99.70
2018-09-08T03:35:01.726Z,99.90
2018-09-08T03:37:29.692Z,99.90
2018-09-08T03:39:57.728Z,99.90
2018-09-08T03:42:25.798Z,99.90
2018-09-08T03:44:53.795Z,99.90
2018-09-08T03:47:21.893Z,99.90
2018-09-08T03:49:49.880Z,99.90
2018-09-08T03:52:17.844Z,99.90
2018-09-08T03:54:45.822Z,99.90
2018-09-08T03:57:13.835Z,99.90
2018-09-08T03:59:41.884Z,99.90
2018-09-08T04:02:09.892Z,99.90
2018-09-08T04:04:40.172Z,99.90
2018-09-08T04:07:10.201Z,99.90
2018-09-08T04:09:40.321Z,99.90
2018-09-08T04:12:10.335Z,99.90
2018-09-08T04:14:40.372Z,99.90
2018-09-08T04:17:10.519Z,99.90
2018-09-08T04:19:40.536Z,99.90
2018-09-08T04:22:10.624Z,99.90
2018-09-08T04:24:40.594Z,99.90
2018-09-08T04:27:10.590Z,99.90
2018-09-08T04:29:40.668Z,99.90
2018-09-08T04:32:10.762Z,99.90
2018-09-08T04:34:40.735Z,99.90
2018-09-08T04:37:10.721Z,99.90
2018-09-08T04:39:40.680Z,99.90
2018-09-08T04:42:10.795Z,99.90
2018-09-08T04:44:40.800Z,99.90
2018-09-08T04:47:11.043Z,99.90
2018-09-08T04:49:41.041Z,99.90
2018-09-08T04:52:11.045Z,99.90
2018-09-08T04:54:41.218Z,99.90
2018-09-08T04:57:11.200Z,99.90
2018-09-08T04:59:41.548Z,99.90
2018-09-08T05:02:11.659Z,99.90
2018-09-08T05:04:41.937Z,99.90
2018-09-08T05:07:12.357Z,99.90
2018-09-08T05:09:42.397Z,99.90
2018-09-08T05:12:12.428Z,99.90
2018-09-08T05:14:42.515Z,99.90
2018-09-08T05:17:12.697Z,99.90
2018-09-08T05:19:42.911Z,99.90
2018-09-08T05:22:13.285Z,99.90
2018-09-08T05:24:43.208Z,99.90
2018-09-08T05:27:13.294Z,99.90
2018-09-08T05:29:43.417Z,99.90
2018-09-08T05:32:13.543Z,99.90
2018-09-08T05:34:43.637Z,99.90
2018-09-08T05:37:13.578Z,99.90
2018-09-08T05:39:44.594Z,99.90
2018-09-08T05:42:14.900Z,99.90
2018-09-08T05:44:45.063Z,99.90
2018-09-08T05:47:15.165Z,99.90
2018-09-08T05:49:45.124Z,99.90
2018-09-08T05:52:15.259Z,99.90
2018-09-08T05:54:45.197Z,99.90
2018-09-08T05:57:15.133Z,99.90
2018-09-08T05:59:45.112Z,99.90
2018-09-08T06:02:15.163Z,99.90
2018-09-08T06:04:45.107Z,99.90
2018-09-08T06:07:15.217Z,99.90
2018-09-08T06:09:45.331Z,99.90
2018-09-08T06:12:15.452Z,99.90
2018-09-08T06:14:45.450Z,99.90
2018-09-08T06:17:15.623Z,99.90
2018-09-08T06:19:45.577Z,99.90
2018-09-08T06:22:15.520Z,99.90
2018-09-08T06:24:45.564Z,99.90
2018-09-08T06:30:12.236Z,99.90
2018-09-08T06:32:42.467Z,99.90
2018-09-08T06:35:12.748Z,99.90
2018-09-08T06:37:42.860Z,99.90
2018-09-08T06:40:12.813Z,99.90
2018-09-08T06:42:42.847Z,99.90
2018-09-08T06:45:12.873Z,99.90
2018-09-08T06:47:43.005Z,99.90
2018-09-08T06:50:13.060Z,99.90
2018-09-08T06:52:43.011Z,99.90
2018-09-08T06:55:13.599Z,99.90
2018-09-08T06:57:43.948Z,99.90
2018-09-08T07:00:13.951Z,99.90
2018-09-08T07:02:44.027Z,99.90
2018-09-08T07:05:14.004Z,99.90
2018-09-08T07:07:44.055Z,99.90
2018-09-08T07:10:14.164Z,99.90
2018-09-08T07:12:44.128Z,99.90
2018-09-08T07:15:14.117Z,99.90
2018-09-08T07:17:44.162Z,99.90
2018-09-08T07:20:14.099Z,99.90
2018-09-08T07:22:44.177Z,99.90
2018-09-08T07:25:14.334Z,99.90
2018-09-08T07:27:44.292Z,99.90
2018-09-08T07:30:14.506Z,99.90
2018-09-08T07:32:44.531Z,99.90
2018-09-08T07:35:14.629Z,99.90
2018-09-08T07:37:44.688Z,99.90
2018-09-08T07:40:14.745Z,99.90
2018-09-08T07:42:46.062Z,99.90
2018-09-08T07:45:15.983Z,99.90
2018-09-08T07:47:46.001Z,99.90
2018-09-08T07:50:15.968Z,99.90
2018-09-08T07:52:45.929Z,99.90
2018-09-08T07:55:31.990Z,99.90
2018-09-08T07:58:04.513Z,99.90
2018-09-08T08:00:34.701Z,99.90
2018-09-08T08:03:10.041Z,99.90
2018-09-08T08:05:40.396Z,99.90
2018-09-08T08:08:10.587Z,99.90
2018-09-08T08:10:41.560Z,99.90
2018-09-08T08:13:11.485Z,99.80
2018-09-08T08:15:41.363Z,99.70
2018-09-08T08:18:11.335Z,99.80
2018-09-08T08:20:41.365Z,99.20
2018-09-08T08:23:11.337Z,99.30
2018-09-08T08:25:41.193Z,99.70
2018-09-08T08:28:11.191Z,99.40
2018-09-08T08:30:41.236Z,99.40
2018-09-08T08:33:11.216Z,99.50
2018-09-08T08:35:41.305Z,98.80
2018-09-08T08:38:11.375Z,99.40
2018-09-08T08:40:41.381Z,99.10
2018-09-08T08:43:11.480Z,99.30
2018-09-08T08:45:41.417Z,98.70
2018-09-08T08:48:11.545Z,98.50
2018-09-08T08:50:57.959Z,98.60
2018-09-08T08:53:44.738Z,98.80
2018-09-08T08:56:14.480Z,98.70
2018-09-08T08:58:44.355Z,98.80
2018-09-08T09:01:15.122Z,98.40
2018-09-08T09:03:45.420Z,98.40
2018-09-08T09:06:15.281Z,98.20
2018-09-08T09:08:45.706Z,98.40
2018-09-08T09:11:15.036Z,98.30
2018-09-08T09:13:43.860Z,98.00
2018-09-08T09:16:20.535Z,97.80
2018-09-08T09:19:07.057Z,97.90
2018-09-08T09:21:53.816Z,97.70
2018-09-08T09:25:08.259Z,98.00
2018-09-08T09:27:42.818Z,97.70
2018-09-08T09:30:13.051Z,97.20
2018-09-08T09:32:42.757Z,97.10
2018-09-08T09:35:14.591Z,97.00
2018-09-08T09:37:44.356Z,96.50
2018-09-08T09:40:15.199Z,96.60
2018-09-08T09:42:50.568Z,96.20
2018-09-08T09:45:23.479Z,96.10
2018-09-08T09:47:54.405Z,95.40
2018-09-08T09:50:24.195Z,95.90
2018-09-08T09:52:54.177Z,95.90
2018-09-08T09:55:28.117Z,95.10
2018-09-08T09:57:58.445Z,95.00
2018-09-08T10:00:33.284Z,94.50
2018-09-08T10:03:07.292Z,94.50
2018-09-08T10:05:37.793Z,94.70
2018-09-08T10:08:07.556Z,94.40
2018-09-08T10:10:37.387Z,93.70
2018-09-08T10:13:07.366Z,93.60
2018-09-08T10:15:37.153Z,93.30
2018-09-08T10:18:07.202Z,93.20
2018-09-08T10:20:37.499Z,93.10
2018-09-08T10:23:07.546Z,92.50
2018-09-08T10:25:37.627Z,93.40
2018-09-08T10:28:07.337Z,92.20
2018-09-08T10:30:41.135Z,92.70
2018-09-08T10:33:11.230Z,92.20
2018-09-08T10:35:41.347Z,92.20
2018-09-08T10:38:11.548Z,92.10
2018-09-08T10:40:41.627Z,92.20
2018-09-08T10:43:11.765Z,91.10
2018-09-08T10:45:41.717Z,91.10
2018-09-08T10:48:12.867Z,89.90
2018-09-08T10:50:42.742Z,89.30
2018-09-08T10:53:14.671Z,89.10
2018-09-08T10:55:44.964Z,87.90
2018-09-08T10:58:16.815Z,88.20
2018-09-08T11:00:46.944Z,90.20
2018-09-08T11:03:16.821Z,89.10
2018-09-08T11:05:46.647Z,88.60
2018-09-08T11:08:23.631Z,87.50
2018-09-08T11:10:54.155Z,88.50
2018-09-08T11:13:23.984Z,87.30
2018-09-08T11:18:40.779Z,87.30
2018-09-08T11:21:10.684Z,87.10
2018-09-08T11:26:30.062Z,87.50
2018-09-08T11:29:05.478Z,86.30
2018-09-08T11:31:35.963Z,87.40
2018-09-08T11:34:05.794Z,87.40
2018-09-08T11:36:36.397Z,88.30
2018-09-08T11:39:08.884Z,88.00
2018-09-08T11:41:40.119Z,87.50
2018-09-08T11:44:17.761Z,85.40
2018-09-08T11:46:47.551Z,85.90
2018-09-08T11:49:17.594Z,83.60
2018-09-08T11:51:47.539Z,83.30
2018-09-08T11:54:17.360Z,84.00
2018-09-08T11:56:47.851Z,84.80
2018-09-08T11:59:17.575Z,85.00
2018-09-08T12:01:48.145Z,85.00
2018-09-08T12:04:18.454Z,85.10
2018-09-08T12:06:48.257Z,84.70
2018-09-08T12:09:18.168Z,85.00
2018-09-08T12:11:47.920Z,84.50
2018-09-08T12:14:19.592Z,84.30
2018-09-08T12:16:49.514Z,81.90
2018-09-08T12:19:21.939Z,81.40
2018-09-08T12:21:52.561Z,81.20
2018-09-08T12:24:25.656Z,80.80
2018-09-08T12:26:57.580Z,81.00
2018-09-08T12:29:28.402Z,80.20
2018-09-08T12:31:58.377Z,79.10
2018-09-08T12:34:28.164Z,78.10
2018-09-08T12:37:13.954Z,78.80
2018-09-08T12:39:43.715Z,79.20
2018-09-08T12:42:13.677Z,78.90
2018-09-08T12:44:43.416Z,79.40
2018-09-08T12:47:13.159Z,78.90
2018-09-08T12:49:43.014Z,78.10
2018-09-08T12:52:12.823Z,79.00
2018-09-08T13:07:43.854Z,78.00
2018-09-08T13:35:27.968Z,77.10
2018-09-08T14:53:48.217Z,76.10
2018-09-08T14:56:28.535Z,76.40
2018-09-08T14:58:59.541Z,76.50
2018-09-08T15:01:30.101Z,77.10
2018-09-08T15:04:00.349Z,77.70
2018-09-08T15:09:29.249Z,78.40
2018-09-08T16:05:00.325Z,81.30
2018-09-08T16:13:45.034Z,82.90
2018-09-08T16:16:18.728Z,82.40
2018-09-08T16:18:49.679Z,82.20
2018-09-08T16:34:46.392Z,84.60
2018-09-08T16:37:31.469Z,83.70
2018-09-08T16:43:01.305Z,86.80
2018-09-08T16:45:32.349Z,86.00
2018-09-08T16:51:31.880Z,86.70
